Nearby METAR Reports

 

YMER - Merimbula Arpt, Australia
Distance from station: SE 12km
Updated: Sat, 13-Jan-2018 10:35pm AEDT
NOT Current
Mostly cloudy
Mostly cloudy
 Wind from calm
Wind: Calm
Temperature: 14°C
Dew Point: 13°C
Humidity: 94%
Barometer: 1005 hPa
Clouds: Mostly cloudy
Visibility: 5 km
Cloud details: Partly cloudy 1067 m
Partly cloudy 1433 m
Mostly cloudy 1920 m
2018/01/13 11:35 YMER 131135Z AUTO 00000KT 5000 // SCT035 SCT047 BKN063 14/13 Q1005
YCOM - Cooma Snowy Mtns, Australia
Distance from station: NW 96km
Updated: Wed, 17-Jan-2018 3:00pm AEDT
Clear
Clear
 Wind from SW
Wind: SW 13 km/h
Temperature: 23°C
Dew Point: -3°C
Humidity: 17%
Barometer: 1020 hPa
Clouds: Clear
Visibility: 10 km
2018/01/17 04:00 YCOM 170400Z AUTO 22007KT 160V260 9999 // NCD 23/M03 Q1020
 
YSCB - Canberra (civ/Mi, Australia
Distance from station: NNW 182km
Updated: Wed, 17-Jan-2018 3:30pm AEDT
Clear
Clear
 Wind from WSW
Wind: WSW 13 km/h
Temperature: 28°C
Dew Point: -5°C
Humidity: 11%
Barometer: 1018 hPa
Summary: Clear
Visibility: greater than 10 km
2018/01/17 04:30 YSCB 170430Z 25007KT 210V300 CAVOK 28/M05 Q1018 NOSIG
YSNW - Nowra (aus-Navy), Australia
Distance from station: NNE 219km
Updated: Wed, 17-Jan-2018 3:00pm AEDT
Clear
Clear
 Wind from SSE
Wind: SSE 24 km/h
Temperature: 23°C
Dew Point: 3°C
Humidity: 27%
Barometer: 1018 hPa
Summary: Clear
Visibility: greater than 10 km
2018/01/17 04:00 YSNW 170400Z 15013KT CAVOK 23/03 Q1018 NOSIG
 
YMAY - Albury Airport, Australia
Distance from station: WNW 271km
Updated: Wed, 17-Jan-2018 3:00pm AEDT
Clear
Clear
 Wind from SSE
Wind: SSE 9 km/h
Temperature: 31°C
Dew Point: -1°C
Humidity: 13%
Barometer: 1017 hPa
Clouds: Clear
Visibility: 10 km
2018/01/17 04:00 YMAY 170400Z AUTO 15005KT 120V220 9999 // NCD 31/M01 Q1017
YSWG - Wagga Wagga(Cv/M, Australia
Distance from station: NW 283km
Updated: Wed, 17-Jan-2018 3:00pm AEDT
Clear
Clear
 Wind from SSE
Wind: SSE 11 km/h
Temperature: 30°C
Dew Point: 3°C
Humidity: 18%
Barometer: 1017 hPa
Summary: Clear
Visibility: greater than 10 km
2018/01/17 04:00 YSWG 170400Z 15006KT 030V180 CAVOK 30/03 Q1017
 
YWGT - Wangaratta Arp, Australia
Distance from station: W 317km
Updated: Wed, 17-Jan-2018 3:00pm AEDT
Clear
Clear
 Wind from ENE
Wind: ENE 7 km/h
Temperature: 31°C
Dew Point: 3°C
Humidity: 17%
Barometer: 1016 hPa
Clouds: Clear
Visibility: 10 km
2018/01/17 04:00 YWGT 170400Z AUTO 07004KT 320V110 9999 // NCD 31/03 Q1016
YSSY - Sydney Intl Airp, Australia
Distance from station: NNE 343km
Updated: Wed, 17-Jan-2018 3:30pm AEDT
Clear
Clear
 Wind from S
Wind: S 35 km/h
Temperature: 21°C
Dew Point: 15°C
Humidity: 69%
Barometer: 1018 hPa
Summary: Clear
Visibility: greater than 10 km
2018/01/17 04:30 YSSY 170430Z 17019KT CAVOK 21/15 Q1018